createdAt,value
2018-08-09T00:00:25.801Z,71.57
2018-08-09T00:02:53.272Z,70.63
2018-08-09T00:05:21.135Z,68.62
2018-08-09T00:07:48.543Z,69.73
2018-08-09T00:10:17.391Z,70.21
2018-08-09T00:12:44.755Z,71.97
2018-08-09T00:15:12.102Z,72.94
2018-08-09T00:17:39.501Z,73.78
2018-08-09T00:20:07.047Z,73.95
2018-08-09T00:22:34.367Z,72.17
2018-08-09T00:25:01.717Z,71.35
2018-08-09T00:27:29.148Z,70.76
2018-08-09T00:29:56.682Z,70.95
2018-08-09T00:32:24.130Z,73.75
2018-08-09T00:34:51.429Z,73.60
2018-08-09T00:37:18.638Z,73.39
2018-08-09T00:39:45.867Z,72.59
2018-08-09T00:42:13.111Z,73.20
2018-08-09T00:44:40.714Z,73.90
2018-08-09T00:47:08.056Z,72.65
2018-08-09T00:49:35.347Z,73.79
2018-08-09T00:52:02.552Z,75.15
2018-08-09T00:54:29.829Z,74.90
2018-08-09T00:56:56.997Z,76.43
2018-08-09T00:59:24.216Z,75.52
2018-08-09T01:01:51.429Z,75.62
2018-08-09T01:04:19.018Z,74.49
2018-08-09T01:06:46.414Z,76.07
2018-08-09T01:09:14.321Z,76.97
2018-08-09T01:11:41.564Z,75.69
2018-08-09T01:14:08.833Z,74.08
2018-08-09T01:16:36.170Z,72.91
2018-08-09T01:19:03.544Z,74.37
2018-08-09T01:21:30.884Z,77.19
2018-08-09T01:23:58.405Z,77.02
2018-08-09T01:26:25.674Z,75.82
2018-08-09T01:28:52.931Z,73.80
2018-08-09T01:31:27.904Z,73.60
2018-08-09T01:33:55.162Z,71.33
2018-08-09T01:36:22.773Z,71.68
2018-08-09T01:38:50.034Z,72.23
2018-08-09T01:41:17.337Z,72.47
2018-08-09T01:43:51.918Z,72.08
2018-08-09T01:46:19.124Z,72.83
2018-08-09T01:48:46.733Z,74.65
2018-08-09T01:51:14.058Z,76.25
2018-08-09T01:53:41.380Z,77.05
2018-08-09T01:56:08.620Z,76.86
2018-08-09T01:58:35.875Z,75.49
2018-08-09T02:01:03.114Z,74.45
2018-08-09T02:03:30.526Z,73.01
2018-08-09T02:05:57.735Z,74.04
2018-08-09T02:08:24.966Z,74.60
2018-08-09T02:10:52.578Z,76.12
2018-08-09T02:13:19.897Z,76.61
2018-08-09T02:15:47.123Z,75.51
2018-08-09T02:18:14.476Z,75.16
2018-08-09T02:20:42.003Z,74.03
2018-08-09T02:23:09.268Z,73.46
2018-08-09T02:25:36.489Z,75.73
2018-08-09T02:28:03.740Z,77.09
2018-08-09T02:30:30.982Z,76.44
2018-08-09T02:32:58.253Z,80.07
2018-08-09T02:35:25.465Z,79.52
2018-08-09T02:37:52.689Z,77.02
2018-08-09T02:40:20.094Z,76.18
2018-08-09T02:42:47.348Z,77.46
2018-08-09T02:45:14.554Z,77.92
2018-08-09T02:47:41.770Z,77.30
2018-08-09T02:50:09.042Z,76.27
2018-08-09T02:52:36.395Z,75.98
2018-08-09T02:55:03.818Z,75.19
2018-08-09T02:57:31.053Z,73.54
2018-08-09T02:59:58.276Z,76.12
2018-08-09T03:02:25.505Z,78.82
2018-08-09T03:04:52.737Z,80.10
2018-08-09T03:07:19.925Z,79.45
2018-08-09T03:09:47.612Z,77.84
2018-08-09T03:12:14.872Z,76.10
2018-08-09T03:14:42.120Z,74.99
2018-08-09T03:17:09.670Z,76.02
2018-08-09T03:19:36.813Z,75.54
2018-08-09T03:22:04.062Z,77.04
2018-08-09T03:24:31.399Z,77.26
2018-08-09T03:26:58.593Z,76.71
2018-08-09T03:29:25.869Z,76.59
2018-08-09T03:31:53.414Z,76.47
2018-08-09T03:34:20.864Z,75.49
2018-08-09T03:36:48.136Z,75.23
2018-08-09T03:39:15.341Z,75.39
2018-08-09T03:41:42.525Z,75.81
2018-08-09T03:44:09.726Z,77.84
2018-08-09T03:46:37.009Z,80.26
2018-08-09T03:49:04.308Z,78.94
2018-08-09T03:51:31.700Z,78.04
2018-08-09T03:53:58.948Z,77.95
2018-08-09T03:56:26.125Z,77.59
2018-08-09T03:58:53.325Z,78.77
2018-08-09T04:01:20.569Z,79.71
2018-08-09T04:03:48.086Z,80.40
2018-08-09T04:06:15.339Z,79.80
2018-08-09T04:08:42.558Z,80.56
2018-08-09T04:11:09.877Z,82.32
2018-08-09T04:13:37.116Z,80.72
2018-08-09T04:16:04.513Z,79.80
2018-08-09T04:18:32.009Z,79.82
2018-08-09T04:20:59.553Z,78.32
2018-08-09T04:23:26.853Z,78.38
2018-08-09T04:25:54.143Z,77.90
2018-08-09T04:28:21.320Z,76.81
2018-08-09T04:30:48.614Z,75.65
2018-08-09T04:33:15.849Z,76.19
2018-08-09T04:35:43.097Z,76.50
2018-08-09T04:38:10.278Z,76.80
2018-08-09T04:40:37.512Z,78.34
2018-08-09T04:43:04.805Z,80.29
2018-08-09T04:45:32.034Z,79.40
2018-08-09T04:47:59.260Z,79.67
2018-08-09T04:50:26.538Z,77.54
2018-08-09T04:52:54.001Z,78.21
2018-08-09T04:55:21.257Z,77.81
2018-08-09T04:57:48.473Z,79.67
2018-08-09T05:00:15.769Z,80.07
2018-08-09T05:02:43.044Z,79.50
2018-08-09T05:05:10.229Z,78.23
2018-08-09T05:07:37.540Z,76.78
2018-08-09T05:10:10.784Z,76.23
2018-08-09T05:12:39.308Z,74.92
2018-08-09T05:15:06.544Z,74.63
2018-08-09T05:17:34.231Z,74.67
2018-08-09T05:20:01.785Z,76.75
2018-08-09T05:22:28.989Z,75.67
2018-08-09T05:24:56.314Z,77.14
2018-08-09T05:27:23.577Z,77.68
2018-08-09T05:29:50.837Z,75.52
2018-08-09T05:32:18.029Z,74.39
2018-08-09T05:34:45.606Z,73.51
2018-08-09T05:37:12.787Z,72.44
2018-08-09T05:39:40.026Z,70.70
2018-08-09T05:42:07.233Z,69.79
2018-08-09T05:44:34.473Z,70.79
2018-08-09T05:47:01.661Z,69.98
2018-08-09T05:49:29.326Z,70.25
2018-08-09T05:51:56.572Z,69.43
2018-08-09T05:54:23.837Z,68.04
2018-08-09T05:56:51.051Z,67.65
2018-08-09T05:59:18.229Z,65.31
2018-08-09T06:01:45.869Z,63.87
2018-08-09T06:04:13.235Z,63.64
2018-08-09T06:06:40.416Z,63.28
2018-08-09T06:09:09.509Z,62.88
2018-08-09T06:11:36.708Z,62.64
2018-08-09T06:14:03.944Z,62.31
2018-08-09T06:16:31.182Z,61.13
2018-08-09T06:18:58.456Z,60.74
2018-08-09T06:21:25.584Z,59.58
2018-08-09T06:23:52.817Z,58.82
2018-08-09T06:26:20.133Z,59.41
2018-08-09T06:28:47.385Z,57.93
2018-08-09T06:31:14.525Z,58.65
2018-08-09T06:33:41.737Z,58.36
2018-08-09T06:36:08.992Z,57.25
2018-08-09T06:38:36.216Z,57.58
2018-08-09T06:41:03.532Z,57.59
2018-08-09T06:43:30.812Z,57.64
2018-08-09T06:45:58.033Z,56.08
2018-08-09T06:48:25.567Z,56.11
2018-08-09T06:50:52.862Z,56.21
2018-08-09T06:53:20.081Z,54.96
2018-08-09T06:55:47.488Z,54.62
2018-08-09T06:58:14.710Z,54.66
2018-08-09T07:00:41.982Z,53.93
2018-08-09T07:03:09.221Z,53.48
2018-08-09T07:05:36.492Z,53.53
2018-08-09T07:08:03.723Z,54.22
2018-08-09T07:10:30.995Z,52.44
2018-08-09T07:12:58.231Z,53.06
2018-08-09T07:15:25.498Z,53.59
2018-08-09T07:17:52.941Z,52.88
2018-08-09T07:20:20.255Z,53.24
2018-08-09T07:22:47.489Z,51.70
2018-08-09T07:25:14.844Z,51.79
2018-08-09T07:27:42.045Z,50.73
2018-08-09T07:30:10.994Z,50.78
2018-08-09T07:32:38.357Z,49.78
2018-08-09T07:35:06.096Z,48.85
2018-08-09T07:37:33.311Z,48.67
2018-08-09T07:40:00.528Z,48.83
2018-08-09T07:42:27.766Z,49.58
2018-08-09T07:44:54.973Z,48.71
2018-08-09T07:47:22.252Z,48.00
2018-08-09T07:49:49.478Z,47.57
2018-08-09T07:52:16.881Z,47.34
2018-08-09T07:54:44.054Z,47.32
2018-08-09T07:57:11.299Z,46.55
2018-08-09T07:59:38.490Z,46.76
2018-08-09T08:02:05.649Z,47.22
2018-08-09T08:04:32.944Z,45.55
2018-08-09T08:07:00.374Z,44.81
2018-08-09T08:09:27.682Z,44.28
2018-08-09T08:11:54.865Z,43.21
2018-08-09T08:14:22.086Z,42.80
2018-08-09T08:16:49.375Z,43.58
2018-08-09T08:19:16.620Z,43.60
2018-08-09T08:21:43.899Z,43.94
2018-08-09T08:24:11.121Z,43.89
2018-08-09T08:26:38.354Z,43.77
2018-08-09T08:29:05.576Z,43.45
2018-08-09T08:31:32.834Z,43.55
2018-08-09T08:34:00.177Z,43.19
2018-08-09T08:36:27.391Z,43.35
2018-08-09T08:38:54.607Z,43.88
2018-08-09T08:41:21.919Z,42.68
2018-08-09T08:43:49.125Z,43.61
2018-08-09T08:46:16.348Z,42.61
2018-08-09T08:48:43.574Z,42.88
2018-08-09T08:51:10.776Z,42.76
2018-08-09T08:53:37.988Z,41.55
2018-08-09T08:56:05.225Z,40.64
2018-08-09T08:58:32.408Z,40.85
2018-08-09T09:00:59.818Z,40.90
2018-08-09T09:03:27.053Z,40.75
2018-08-09T09:05:54.372Z,40.43
2018-08-09T09:08:21.615Z,39.68
2018-08-09T09:10:52.933Z,39.69
2018-08-09T09:13:20.250Z,38.26
2018-08-09T09:15:47.520Z,38.54
2018-08-09T09:18:14.796Z,37.85
2018-08-09T09:20:42.081Z,37.90
2018-08-09T09:23:09.371Z,37.44
2018-08-09T09:25:36.645Z,37.20
2018-08-09T09:28:03.874Z,37.32
2018-08-09T09:30:31.129Z,37.25
2018-08-09T09:32:58.369Z,36.32
2018-08-09T09:35:25.536Z,36.32
2018-08-09T09:37:52.751Z,35.73
2018-08-09T09:40:19.966Z,36.04
2018-08-09T09:42:47.149Z,36.45
2018-08-09T09:45:14.447Z,35.84
2018-08-09T09:47:41.704Z,35.92
2018-08-09T09:50:09.813Z,35.29
2018-08-09T09:52:37.113Z,34.91
2018-08-09T09:55:04.733Z,34.53
2018-08-09T09:57:32.022Z,34.87
2018-08-09T09:59:59.252Z,34.63
2018-08-09T10:02:26.498Z,34.78
2018-08-09T10:04:53.691Z,32.02
2018-08-09T10:07:20.953Z,32.95
2018-08-09T10:09:48.177Z,32.72
2018-08-09T10:12:15.405Z,32.25
2018-08-09T10:14:42.773Z,32.52
2018-08-09T10:17:09.998Z,33.72
2018-08-09T10:19:37.234Z,33.33
2018-08-09T10:22:04.462Z,32.93
2018-08-09T10:24:31.900Z,32.46
2018-08-09T10:26:59.204Z,31.89
2018-08-09T10:29:26.452Z,30.76
2018-08-09T10:31:53.664Z,31.42
2018-08-09T10:34:21.018Z,30.87
2018-08-09T10:36:48.258Z,30.36
2018-08-09T10:39:15.461Z,29.60
2018-08-09T10:41:42.898Z,30.27
2018-08-09T10:44:10.309Z,30.81
2018-08-09T10:46:37.655Z,30.39
2018-08-09T10:49:06.128Z,31.23
2018-08-09T10:51:33.425Z,31.48
2018-08-09T10:54:00.730Z,31.04
2018-08-09T10:56:28.090Z,30.33
2018-08-09T10:58:55.340Z,30.91
2018-08-09T11:01:22.668Z,29.80
2018-08-09T11:03:50.086Z,30.11
2018-08-09T11:06:17.390Z,29.42
2018-08-09T11:08:44.664Z,29.14
2018-08-09T11:11:13.228Z,30.70
2018-08-09T11:13:42.311Z,30.57
2018-08-09T11:16:09.776Z,29.38
2018-08-09T11:18:37.051Z,29.55
2018-08-09T11:21:04.297Z,29.31
2018-08-09T11:23:31.821Z,29.34
2018-08-09T11:25:59.196Z,28.40
2018-08-09T11:28:26.429Z,29.88
2018-08-09T11:30:53.780Z,28.32
2018-08-09T11:33:21.205Z,28.83
2018-08-09T11:35:48.531Z,28.64
2018-08-09T11:38:15.884Z,28.50
2018-08-09T11:40:43.276Z,29.07
2018-08-09T11:43:11.696Z,27.91
2018-08-09T11:45:39.002Z,28.59
2018-08-09T11:48:06.504Z,28.58
2018-08-09T11:50:33.876Z,28.46
2018-08-09T11:53:01.158Z,27.75
2018-08-09T11:55:28.417Z,28.61
2018-08-09T11:57:55.693Z,27.89
2018-08-09T12:00:23.002Z,28.20
2018-08-09T12:02:50.300Z,27.19
2018-08-09T12:05:17.648Z,27.40
2018-08-09T12:07:45.093Z,27.31
2018-08-09T12:10:12.518Z,26.56
2018-08-09T12:12:40.048Z,26.65
2018-08-09T12:15:07.448Z,26.41
2018-08-09T12:17:34.880Z,25.98
2018-08-09T12:20:02.318Z,25.89
2018-08-09T12:22:29.938Z,25.71
2018-08-09T12:24:57.334Z,25.58
2018-08-09T12:27:24.764Z,26.09
2018-08-09T12:29:52.191Z,25.15
2018-08-09T12:32:19.699Z,24.80
2018-08-09T12:34:47.044Z,24.81
2018-08-09T12:37:14.443Z,24.78
2018-08-09T12:39:42.066Z,24.77
2018-08-09T12:42:09.633Z,24.49
2018-08-09T12:44:37.180Z,24.64
2018-08-09T12:47:04.753Z,23.76
2018-08-09T12:49:32.072Z,24.09
2018-08-09T12:51:59.496Z,24.12
2018-08-09T12:54:26.879Z,24.16
2018-08-09T12:56:54.230Z,24.94
2018-08-09T12:59:21.817Z,25.60
2018-08-09T13:01:49.268Z,24.26
2018-08-09T13:04:16.722Z,24.40
2018-08-09T13:06:44.148Z,24.21
2018-08-09T13:09:11.886Z,23.80
2018-08-09T13:11:39.410Z,23.28
2018-08-09T13:14:06.852Z,24.54
2018-08-09T13:16:34.342Z,24.70
2018-08-09T13:19:01.749Z,24.64
2018-08-09T13:21:29.290Z,24.38
2018-08-09T13:23:56.669Z,24.39
2018-08-09T13:26:24.083Z,23.51
2018-08-09T13:28:51.526Z,23.05
2018-08-09T13:31:18.914Z,23.95
2018-08-09T13:33:46.235Z,24.36
2018-08-09T13:36:13.609Z,24.33
2018-08-09T13:38:40.958Z,23.18
2018-08-09T13:41:08.295Z,22.93
2018-08-09T13:43:35.774Z,23.08
2018-08-09T13:46:03.226Z,23.55
2018-08-09T13:48:30.568Z,22.49
2018-08-09T13:50:58.701Z,23.00
2018-08-09T13:53:26.230Z,22.54
2018-08-09T13:55:53.584Z,22.38
2018-08-09T13:58:21.013Z,23.58
2018-08-09T14:00:48.321Z,24.28
2018-08-09T14:03:15.691Z,23.07
2018-08-09T14:05:43.138Z,23.25
2018-08-09T14:08:10.487Z,22.01
2018-08-09T14:10:37.936Z,22.03
2018-08-09T14:13:05.485Z,21.86
2018-08-09T14:15:32.925Z,21.05
2018-08-09T14:18:00.295Z,21.39
2018-08-09T14:20:27.614Z,21.87
2018-08-09T14:22:54.993Z,21.64
2018-08-09T14:25:22.519Z,21.00
2018-08-09T14:27:49.940Z,20.82
2018-08-09T14:30:17.359Z,20.80
2018-08-09T14:32:45.145Z,21.55
2018-08-09T14:35:14.172Z,22.20
2018-08-09T14:37:42.503Z,22.98
2018-08-09T14:40:10.735Z,21.92
2018-08-09T14:42:38.163Z,21.71
2018-08-09T14:45:09.906Z,21.41
2018-08-09T14:47:37.419Z,21.43
2018-08-09T14:50:05.359Z,22.56
2018-08-09T14:52:32.895Z,22.13
2018-08-09T14:55:00.416Z,21.70
2018-08-09T14:57:27.961Z,20.34
2018-08-09T14:59:55.488Z,21.13
2018-08-09T15:02:22.938Z,21.39
2018-08-09T15:04:50.287Z,20.79
2018-08-09T15:07:17.686Z,20.78
2018-08-09T15:09:45.177Z,21.24
2018-08-09T15:12:12.627Z,20.54
2018-08-09T15:14:40.041Z,20.84
2018-08-09T15:17:07.564Z,22.22
2018-08-09T15:19:34.980Z,22.32
2018-08-09T15:22:02.371Z,21.62
2018-08-09T15:24:29.928Z,21.26
2018-08-09T15:26:57.305Z,21.63
2018-08-09T15:29:24.668Z,22.19
2018-08-09T15:31:52.004Z,21.56
2018-08-09T15:34:19.421Z,22.54
2018-08-09T15:36:46.748Z,23.37
2018-08-09T15:39:14.293Z,23.86
2018-08-09T15:41:42.400Z,22.64
2018-08-09T15:44:10.484Z,22.36
2018-08-09T15:46:37.895Z,22.49
2018-08-09T15:49:05.334Z,23.00
2018-08-09T15:51:32.762Z,22.14
2018-08-09T15:54:00.196Z,22.11
2018-08-09T15:56:27.663Z,21.53
2018-08-09T15:58:55.150Z,21.34
2018-08-09T16:01:22.683Z,20.71
2018-08-09T16:03:50.268Z,22.43
2018-08-09T16:06:17.715Z,23.81
2018-08-09T16:08:45.357Z,25.03
2018-08-09T16:11:12.800Z,24.75
2018-08-09T16:13:40.220Z,25.16
2018-08-09T16:16:07.776Z,25.20
2018-08-09T16:18:35.063Z,23.68
2018-08-09T16:21:02.539Z,23.43
2018-08-09T16:23:29.910Z,23.13
2018-08-09T16:25:57.353Z,24.49
2018-08-09T16:28:24.651Z,25.61
2018-08-09T16:30:52.197Z,25.21
2018-08-09T16:33:19.725Z,25.53
2018-08-09T16:35:47.181Z,25.91
2018-08-09T16:38:14.690Z,25.86
2018-08-09T16:40:42.410Z,25.63
2018-08-09T16:43:10.015Z,25.89
2018-08-09T16:48:16.912Z,25.56
2018-08-09T16:50:44.149Z,26.61
2018-08-09T16:53:11.324Z,26.76
2018-08-09T16:55:38.616Z,25.51
2018-08-09T16:58:05.769Z,26.37
2018-08-09T17:00:33.019Z,31.66
2018-08-09T17:03:00.198Z,34.17
2018-08-09T17:05:27.752Z,36.47
2018-08-09T17:07:54.928Z,37.42
2018-08-09T17:10:23.168Z,39.53
2018-08-09T17:12:50.418Z,40.81
2018-08-09T17:28:17.892Z,40.94
2018-08-09T17:30:45.082Z,42.29
2018-08-09T17:33:12.304Z,41.92
2018-08-09T17:35:39.476Z,43.55
2018-08-09T17:38:06.684Z,43.92
2018-08-09T17:40:34.140Z,43.61
2018-08-09T17:43:02.247Z,43.22
2018-08-09T17:45:31.066Z,43.55
2018-08-09T17:47:58.597Z,44.33
2018-08-09T17:50:25.827Z,44.13
2018-08-09T17:52:54.161Z,43.71
2018-08-09T17:55:21.344Z,44.59
2018-08-09T18:00:24.559Z,45.55
2018-08-09T18:02:52.257Z,45.69
2018-08-09T18:05:19.432Z,46.43
2018-08-09T18:07:46.661Z,46.05
2018-08-09T18:10:16.477Z,45.58
2018-08-09T18:12:43.735Z,45.60
2018-08-09T18:15:10.927Z,45.75
2018-08-09T18:17:38.822Z,46.68
2018-08-09T18:20:10.586Z,47.04
2018-08-09T18:22:37.911Z,46.37
2018-08-09T18:25:07.334Z,47.10
2018-08-09T18:27:34.522Z,46.78
2018-08-09T18:30:01.752Z,46.73
2018-08-09T18:32:28.925Z,47.06
2018-08-09T18:34:56.243Z,46.77
2018-08-09T18:37:23.400Z,47.58
2018-08-09T18:39:50.891Z,47.10
2018-08-09T18:42:18.162Z,47.19
2018-08-09T18:44:45.466Z,47.05
2018-08-09T18:47:12.721Z,46.71
2018-08-09T18:49:39.974Z,46.91
2018-08-09T18:52:07.183Z,47.20
2018-08-09T18:54:34.368Z,47.52
2018-08-09T18:57:01.565Z,48.67
2018-08-09T18:59:28.877Z,48.10
2018-08-09T19:01:56.136Z,49.27
2018-08-09T19:04:23.385Z,48.46
2018-08-09T19:06:50.660Z,49.16
2018-08-09T19:09:17.930Z,49.36
2018-08-09T19:11:45.197Z,48.90
2018-08-09T19:14:12.376Z,48.32
2018-08-09T19:16:39.574Z,48.78
2018-08-09T19:19:06.829Z,48.61
2018-08-09T19:21:34.093Z,48.63
2018-08-09T19:24:01.307Z,47.81
2018-08-09T19:26:28.561Z,49.11
2018-08-09T19:28:55.921Z,49.41
2018-08-09T19:31:23.799Z,48.97
2018-08-09T19:33:50.961Z,48.88
2018-08-09T19:36:18.235Z,48.58
2018-08-09T19:38:45.553Z,48.32
2018-08-09T19:41:12.907Z,48.42
2018-08-09T19:43:40.080Z,48.45
2018-08-09T19:46:07.296Z,49.69
2018-08-09T19:48:35.794Z,49.06
2018-08-09T19:51:03.041Z,49.24
2018-08-09T19:53:30.242Z,50.33
2018-08-09T19:55:57.449Z,50.40
2018-08-09T19:58:24.755Z,50.76
2018-08-09T20:00:51.997Z,50.94
2018-08-09T20:03:19.248Z,51.67
2018-08-09T20:05:46.382Z,51.63
2018-08-09T20:08:13.549Z,51.90
2018-08-09T20:10:40.769Z,50.93
2018-08-09T20:13:07.929Z,50.55
2018-08-09T20:15:35.112Z,50.24
2018-08-09T20:18:02.310Z,51.72
2018-08-09T20:20:29.594Z,52.04
2018-08-09T20:22:56.855Z,51.00
2018-08-09T20:25:24.064Z,51.25
2018-08-09T20:27:51.293Z,49.83
2018-08-09T20:30:18.988Z,50.76
2018-08-09T20:32:46.611Z,50.14
2018-08-09T20:35:15.359Z,51.55
2018-08-09T20:37:43.601Z,51.37
2018-08-09T20:40:11.562Z,50.96
2018-08-09T20:42:39.222Z,51.61
2018-08-09T20:45:07.920Z,51.36
2018-08-09T20:47:35.372Z,51.78
2018-08-09T20:50:02.916Z,52.90
2018-08-09T20:52:30.095Z,51.83
2018-08-09T20:54:57.331Z,52.76
2018-08-09T20:57:24.551Z,52.58
2018-08-09T20:59:51.872Z,53.31
2018-08-09T21:02:19.114Z,52.43
2018-08-09T21:04:46.281Z,52.18
2018-08-09T21:07:13.450Z,51.29
2018-08-09T21:09:40.644Z,51.38
2018-08-09T21:12:07.836Z,51.42
2018-08-09T21:14:35.116Z,51.74
2018-08-09T21:17:02.352Z,51.43
2018-08-09T21:19:29.568Z,52.86
2018-08-09T21:21:56.888Z,53.32
2018-08-09T21:24:24.197Z,52.63
2018-08-09T21:26:51.401Z,52.21
2018-08-09T21:29:18.597Z,52.32
2018-08-09T21:31:45.868Z,54.08
2018-08-09T21:34:13.093Z,54.95
2018-08-09T21:36:40.273Z,54.37
2018-08-09T21:39:09.039Z,54.36
2018-08-09T21:41:36.263Z,54.07
2018-08-09T21:44:03.544Z,53.16
2018-08-09T21:46:30.704Z,53.20
2018-08-09T21:48:57.977Z,52.87
2018-08-09T21:51:25.339Z,53.04
2018-08-09T21:53:52.420Z,53.45
2018-08-09T21:56:19.566Z,53.82
2018-08-09T21:58:46.707Z,55.07
2018-08-09T22:01:14.021Z,55.01
2018-08-09T22:03:41.477Z,54.58
2018-08-09T22:06:14.348Z,54.64
2018-08-09T22:08:47.225Z,54.93
2018-08-09T22:11:20.009Z,56.16
2018-08-09T22:13:52.876Z,55.10
2018-08-09T22:16:25.865Z,55.45
2018-08-09T22:18:58.595Z,55.63
2018-08-09T22:21:31.465Z,55.59
2018-08-09T22:23:58.632Z,55.28
2018-08-09T22:26:25.785Z,55.79
2018-08-09T22:28:53.265Z,56.52
2018-08-09T22:31:20.513Z,56.59
2018-08-09T22:33:47.652Z,56.70
2018-08-09T22:36:14.926Z,57.31
2018-08-09T22:38:42.115Z,57.21
2018-08-09T22:41:09.447Z,57.04
2018-08-09T22:43:36.868Z,57.00
2018-08-09T22:46:04.376Z,57.37
2018-08-09T22:48:31.697Z,57.50
2018-08-09T22:50:58.873Z,56.94
2018-08-09T22:53:26.090Z,56.89
2018-08-09T22:55:53.400Z,57.06
2018-08-09T22:58:20.632Z,56.62
2018-08-09T23:00:47.871Z,57.15
2018-08-09T23:03:15.083Z,57.62
2018-08-09T23:05:42.241Z,57.95
2018-08-09T23:08:10.726Z,57.57
2018-08-09T23:10:38.588Z,57.25
2018-08-09T23:13:06.068Z,57.97
2018-08-09T23:15:33.240Z,57.93
2018-08-09T23:18:00.385Z,58.01
2018-08-09T23:20:27.556Z,57.97
2018-08-09T23:22:54.763Z,57.53
2018-08-09T23:25:21.891Z,57.55
2018-08-09T23:27:49.053Z,58.12
2018-08-09T23:30:16.236Z,57.95
2018-08-09T23:32:43.380Z,57.70
2018-08-09T23:35:10.970Z,58.44
2018-08-09T23:37:38.200Z,58.45
2018-08-09T23:40:07.521Z,57.85
2018-08-09T23:42:35.850Z,57.50
2018-08-09T23:45:03.518Z,58.18
2018-08-09T23:47:30.781Z,57.74
2018-08-09T23:49:57.953Z,58.74
2018-08-09T23:52:25.150Z,58.15
2018-08-09T23:54:52.332Z,58.67
2018-08-09T23:57:19.441Z,58.81
2018-08-09T23:59:46.689Z,59.19
